Time;durP1;ratioP1;P1;durP2;ratioP2;P2;SDS_P1;SDS_P2;PMS_P1;PMS_P2;Temp;Humidity;BMP_temperature;BMP_pressure;BME280_temperature;BME280_humidity;BME280_pressure;Samples;Min_cycle;Max_cycle;Signal;HPM_P1;HPM_P2
2022/04/27 00:02:17;;;;;;;35.73;20.45;;;;;;;3.68;67.72;101804.38;1701314;81;22689;-87
2022/04/27 00:04:44;;;;;;;35.45;21.27;;;;;;;3.70;67.70;101800.18;1739017;80;21548;-83
2022/04/27 00:07:11;;;;;;;36.68;20.50;;;;;;;3.72;67.69;101808.48;1738660;80;21057;-87
2022/04/27 00:09:38;;;;;;;35.23;20.23;;;;;;;3.73;67.67;101811.20;1729590;81;21138;-83
2022/04/27 00:12:06;;;;;;;35.23;20.23;;;;;;;3.71;67.69;101806.28;1719204;81;21192;-83
2022/04/27 00:14:33;;;;;;;39.40;21.80;;;;;;;3.69;67.76;101807.88;1723615;81;21866;-83
2022/04/27 00:16:59;;;;;;;39.60;23.52;;;;;;;3.67;67.78;101818.18;1737686;81;21575;-83
2022/04/27 00:19:27;;;;;;;37.90;23.05;;;;;;;3.63;67.79;101817.47;1715658;82;21061;-89
2022/04/27 00:21:54;;;;;;;41.70;23.32;;;;;;;3.61;67.83;101825.57;1707132;81;21632;-88
2022/04/27 00:24:21;;;;;;;36.10;23.12;;;;;;;3.59;67.89;101828.47;1706760;82;21582;-88
2022/04/27 00:26:48;;;;;;;40.90;22.10;;;;;;;3.56;67.85;101833.45;1712933;81;22527;-84
2022/04/27 00:29:14;;;;;;;38.63;23.55;;;;;;;3.53;67.95;101832.33;1678775;84;21641;-84
2022/04/27 00:31:41;;;;;;;43.05;23.87;;;;;;;3.49;67.99;101837.70;1707783;82;21187;-84
2022/04/27 00:34:08;;;;;;;38.10;23.02;;;;;;;3.46;68.03;101835.80;1745392;80;21907;-84
2022/04/27 00:36:35;;;;;;;37.60;23.18;;;;;;;3.44;68.07;101837.39;1697971;81;21150;-87
2022/04/27 00:39:03;;;;;;;40.60;23.45;;;;;;;3.41;68.09;101833.66;1733377;80;22145;-88
2022/04/27 00:41:30;;;;;;;39.38;22.93;;;;;;;3.38;68.20;101838.27;1754115;80;21544;-88
2022/04/27 00:43:57;;;;;;;41.10;22.40;;;;;;;3.34;68.26;101832.34;1717738;79;21137;-84
2022/04/27 00:46:23;;;;;;;41.00;22.35;;;;;;;3.31;68.37;101831.70;1725628;79;21086;-87
2022/04/27 00:48:50;;;;;;;39.00;22.55;;;;;;;3.27;68.47;101834.00;1695934;81;21057;-89
2022/04/27 00:51:18;;;;;;;38.88;22.73;;;;;;;3.25;68.58;101834.28;1717261;79;21892;-87
2022/04/27 00:53:44;;;;;;;37.70;21.48;;;;;;;3.23;68.65;101835.84;1760021;79;21073;-84
2022/04/27 00:56:12;;;;;;;39.73;23.47;;;;;;;3.21;68.65;101843.94;1730794;80;21616;-83
2022/04/27 00:58:39;;;;;;;36.38;22.07;;;;;;;3.19;68.71;101841.25;1738544;81;21209;-90
2022/04/27 01:01:05;;;;;;;38.02;23.12;;;;;;;3.20;68.83;101846.05;1715677;82;21138;-90
2022/04/27 01:03:37;;;;;;;37.75;22.82;;;;;;;3.19;68.91;101851.66;1733917;81;21774;-90
2022/04/27 01:06:04;;;;;;;31.95;21.52;;;;;;;3.18;69.00;101860.24;1743236;80;21816;-84
2022/04/27 01:08:31;;;;;;;37.50;20.97;;;;;;;3.16;69.04;101857.93;1711878;81;21060;-89
2022/04/27 01:10:59;;;;;;;36.50;22.15;;;;;;;3.14;69.08;101860.82;1682999;81;21084;-84
2022/04/27 01:13:29;;;;;;;33.48;21.27;;;;;;;3.13;69.15;101860.30;1747552;80;21101;-84
2022/04/27 01:15:56;;;;;;;36.90;22.25;;;;;;;3.12;69.22;101868.91;1724986;81;21827;-89
2022/04/27 01:18:23;;;;;;;36.88;20.70;;;;;;;3.11;69.27;101869.28;1726785;81;21052;-89
2022/04/27 01:20:50;;;;;;;34.92;21.05;;;;;;;3.10;69.33;101866.59;1745076;80;21169;-89
2022/04/27 01:23:17;;;;;;;38.65;20.62;;;;;;;3.11;69.51;101866.69;1723606;79;21478;-84
2022/04/27 01:25:54;;;;;;;34.78;20.60;;;;;;;3.14;69.49;101868.63;1739007;79;21592;-84
2022/04/27 01:28:24;;;;;;;34.40;20.40;;;;;;;3.18;69.58;101871.06;1689123;81;21760;-84
2022/04/27 01:31:00;;;;;;;33.33;20.15;;;;;;;3.22;69.55;101870.48;1751064;80;21038;-90
2022/04/27 01:33:27;;;;;;;36.05;20.52;;;;;;;3.23;69.48;101870.59;1744403;80;21111;-83
2022/04/27 01:35:54;;;;;;;35.92;21.05;;;;;;;3.25;69.49;101869.41;1744746;80;21171;-82
2022/04/27 01:38:20;;;;;;;33.08;20.70;;;;;;;3.28;69.51;101878.35;1718467;80;21069;-83
2022/04/27 01:40:47;;;;;;;32.13;20.40;;;;;;;3.29;69.50;101874.94;1743446;80;21807;-86
2022/04/27 01:43:15;;;;;;;35.88;20.08;;;;;;;3.30;69.45;101872.86;1759417;80;21080;-83
2022/04/27 01:45:44;;;;;;;37.98;20.97;;;;;;;3.31;69.49;101881.16;1721103;81;21579;-88
2022/04/27 01:48:11;;;;;;;36.13;22.00;;;;;;;3.30;69.42;101873.23;1734802;80;21815;-83
2022/04/27 01:50:38;;;;;;;35.88;21.65;;;;;;;3.29;69.41;101874.04;1731735;80;21082;-83
2022/04/27 01:55:51;;;;;;;36.00;21.93;;;;;;;3.26;69.44;101873.40;1750835;80;21065;-88
2022/04/27 01:58:19;;;;;;;33.67;21.27;;;;;;;3.24;69.54;101882.80;1745055;80;21080;-84
2022/04/27 02:00:47;;;;;;;36.88;21.93;;;;;;;3.21;69.59;101886.50;1734517;81;21342;-84
2022/04/27 02:03:15;;;;;;;34.70;22.30;;;;;;;3.20;69.72;101878.17;1709716;82;21109;-83
2022/04/27 02:05:42;;;;;;;40.25;23.12;;;;;;;3.20;69.82;101885.97;1717271;82;21768;-83
2022/04/27 02:08:09;;;;;;;36.73;22.52;;;;;;;3.21;69.92;101882.59;1729336;81;21105;-88
2022/04/27 02:10:37;;;;;;;33.60;21.97;;;;;;;3.25;69.97;101888.52;1731804;80;21126;-83
2022/04/27 02:13:07;;;;;;;37.67;22.10;;;;;;;3.25;69.91;101882.02;1743310;80;21093;-83
2022/04/27 02:15:35;;;;;;;34.80;22.48;;;;;;;3.25;69.97;101880.72;1756227;78;21065;-88
2022/04/27 02:18:02;;;;;;;36.23;21.87;;;;;;;3.23;70.04;101878.41;1744419;80;22645;-83
2022/04/27 02:20:29;;;;;;;39.40;22.65;;;;;;;3.36;70.23;101888.01;1753108;79;21071;-84
2022/04/27 02:22:56;;;;;;;32.30;21.68;;;;;;;3.43;70.29;101890.23;1754376;78;21074;-88
2022/04/27 02:25:23;;;;;;;34.80;22.20;;;;;;;3.53;70.46;101889.22;1754215;80;21384;-88
2022/04/27 02:27:50;;;;;;;34.48;22.00;;;;;;;3.64;70.45;101884.75;1752287;80;21097;-84
2022/04/27 02:30:18;;;;;;;35.63;22.62;;;;;;;3.72;70.38;101883.99;1749081;80;21860;-89
2022/04/27 02:32:46;;;;;;;34.27;21.95;;;;;;;3.79;70.33;101884.56;1751181;79;21648;-88
2022/04/27 02:35:12;;;;;;;36.60;22.15;;;;;;;3.85;70.19;101890.60;1745778;79;21132;-88
2022/04/27 02:37:39;;;;;;;36.23;22.45;;;;;;;3.91;70.17;101888.83;1699679;82;21250;-89
2022/04/27 02:40:10;;;;;;;35.30;22.87;;;;;;;3.94;70.11;101893.86;1746637;80;21040;-89
2022/04/27 02:42:37;;;;;;;35.95;22.67;;;;;;;3.95;70.05;101891.73;1750015;80;22791;-83
2022/04/27 02:45:04;;;;;;;42.50;24.40;;;;;;;3.94;70.09;101895.16;1744917;80;21054;-86
2022/04/27 02:47:32;;;;;;;37.55;23.12;;;;;;;3.96;70.14;101896.16;1747850;79;21347;-84
2022/04/27 02:52:47;;;;;;;40.98;23.10;;;;;;;4.04;70.36;101893.69;1760251;79;21150;-83
2022/04/27 02:55:14;;;;;;;40.28;23.07;;;;;;;4.12;70.35;101895.52;1742918;79;22648;-83
2022/04/27 02:57:40;;;;;;;34.13;23.22;;;;;;;4.18;70.42;101897.64;1753996;80;22228;-83
2022/04/27 03:00:08;;;;;;;36.98;24.50;;;;;;;4.24;70.48;101901.97;1758078;80;21063;-89
2022/04/27 03:02:35;;;;;;;41.37;25.50;;;;;;;4.30;70.78;101908.93;1736214;80;21116;-90
2022/04/27 03:05:05;;;;;;;34.80;23.50;;;;;;;4.35;71.00;101907.92;1742898;80;21524;-90
2022/04/27 03:07:32;;;;;;;35.40;24.80;;;;;;;4.40;71.19;101916.56;1730388;80;21895;-89
2022/04/27 03:09:59;;;;;;;34.58;24.90;;;;;;;4.46;71.44;101918.28;1730170;80;21092;-83
2022/04/27 03:12:25;;;;;;;36.48;25.55;;;;;;;4.52;71.70;101921.70;1747428;81;22111;-84
2022/04/27 03:14:53;;;;;;;37.88;25.35;;;;;;;4.60;72.11;101923.56;1728641;80;21061;-83
2022/04/27 03:17:19;;;;;;;33.10;24.47;;;;;;;4.70;72.21;101923.38;1725424;81;21089;-83
2022/04/27 03:19:47;;;;;;;34.98;24.95;;;;;;;4.79;72.28;101925.30;1723551;81;21897;-89
2022/04/27 03:22:14;;;;;;;35.13;26.62;;;;;;;4.85;72.42;101929.61;1751147;80;21047;-89
2022/04/27 03:24:40;;;;;;;32.93;25.85;;;;;;;4.94;72.77;101931.94;1770498;80;21909;-90
2022/04/27 03:27:07;;;;;;;29.37;24.50;;;;;;;5.06;73.01;101939.67;1763000;80;21105;-89
2022/04/27 03:29:43;;;;;;;23.60;19.32;;;;;;;5.18;73.21;101947.02;1739095;80;21235;-84
2022/04/27 03:32:05;;;;;;;25.52;21.48;;;;;;;5.29;73.31;101949.42;1721299;81;21787;-84
2022/04/27 03:34:32;;;;;;;21.93;19.50;;;;;;;5.33;73.36;101951.05;1723726;81;21734;-85
2022/04/27 03:37:00;;;;;;;19.98;17.82;;;;;;;5.40;73.49;101949.72;1730659;81;21181;-85
2022/04/27 03:39:27;;;;;;;20.60;16.93;;;;;;;5.44;73.23;101954.33;1732521;81;21076;-85
2022/04/27 03:41:54;;;;;;;27.17;18.98;;;;;;;5.42;73.28;101955.94;1731435;80;21062;-89
2022/04/27 03:44:21;;;;;;;22.82;20.05;;;;;;;5.45;73.34;101957.45;1752502;80;22606;-83
2022/04/27 03:46:48;;;;;;;22.30;19.55;;;;;;;5.48;73.49;101961.59;1743129;80;21071;-83
2022/04/27 03:49:15;;;;;;;21.68;19.35;;;;;;;5.54;73.45;101965.00;1713720;82;21071;-88
2022/04/27 03:51:42;;;;;;;22.70;19.17;;;;;;;5.59;73.55;101967.10;1700080;82;21063;-89
2022/04/27 03:54:09;;;;;;;23.02;19.25;;;;;;;5.66;73.61;101968.38;1696399;82;21115;-89
2022/04/27 03:56:36;;;;;;;23.90;20.02;;;;;;;5.72;73.57;101980.94;1728910;81;22629;-83
2022/04/27 03:59:03;;;;;;;24.65;19.98;;;;;;;5.75;73.51;101981.14;1735933;81;21063;-84
2022/04/27 04:01:41;;;;;;;;;;;;;;;;;;;;;
2022/04/27 04:04:01;;;;;;;23.20;17.90;;;;;;;5.85;73.43;101985.73;1681542;82;21703;-87
2022/04/27 04:06:28;;;;;;;24.07;19.00;;;;;;;5.88;73.48;101980.23;1733491;81;21123;-85
2022/04/27 04:08:55;;;;;;;22.58;17.12;;;;;;;5.87;73.32;101985.83;1729300;80;21813;-89
2022/04/27 04:11:22;;;;;;;24.45;17.98;;;;;;;5.89;73.49;101991.16;1755595;78;21583;-89
2022/04/27 04:13:49;;;;;;;24.00;20.20;;;;;;;5.89;73.41;101985.94;1756041;78;21057;-84
2022/04/27 04:16:15;;;;;;;23.18;19.35;;;;;;;5.86;73.47;101989.27;1741492;80;21062;-88
2022/04/27 04:18:42;;;;;;;18.35;16.40;;;;;;;5.91;73.63;101989.55;1745179;81;21711;-89
2022/04/27 04:21:14;;;;;;;21.27;16.42;;;;;;;5.94;73.52;101993.27;1723218;81;21757;-90
2022/04/27 04:23:39;;;;;;;19.02;17.02;;;;;;;5.96;73.54;102000.83;1749301;80;21575;-84
2022/04/27 04:28:55;;;;;;;17.95;13.48;;;;;;;5.99;73.50;101998.42;1739737;80;21054;-89
2022/04/27 04:31:21;;;;;;;17.23;11.80;;;;;;;6.00;73.54;102002.83;1742296;80;21065;-84
2022/04/27 04:33:48;;;;;;;16.30;11.20;;;;;;;5.97;73.39;102010.49;1755159;78;21784;-89
2022/04/27 04:36:19;;;;;;;12.60;11.30;;;;;;;5.95;73.47;102015.06;1754861;80;21469;-90
2022/04/27 04:38:44;;;;;;;13.72;12.23;;;;;;;5.85;73.37;102014.88;1760963;80;21185;-83
2022/04/27 04:44:11;;;;;;;12.63;9.58;;;;;;;5.83;73.44;102030.87;1709760;82;21200;-91
2022/04/27 04:46:44;;;;;;;35.65;28.83;;;;;;;5.80;73.39;102028.97;1656561;83;21724;-93
2022/04/27 04:49:10;;;;;;;15.20;11.85;;;;;;;5.83;73.58;102026.95;1696539;82;21050;-88
2022/04/27 04:51:40;;;;;;;28.67;24.90;;;;;;;5.93;73.70;102031.05;1681815;83;21587;-87
2022/04/27 04:54:06;;;;;;;19.00;15.00;;;;;;;5.96;73.66;102036.11;1685755;83;21307;-89
2022/04/27 04:56:33;;;;;;;12.13;10.63;;;;;;;6.09;73.72;102037.80;1661175;84;21617;-86
2022/04/27 04:59:02;;;;;;;16.17;12.23;;;;;;;6.18;73.57;102041.00;1696860;83;21864;-86
2022/04/27 05:01:28;;;;;;;11.22;9.55;;;;;;;6.21;73.54;102042.89;1669705;83;21857;-92
2022/04/27 05:04:03;;;;;;;13.20;9.95;;;;;;;6.32;73.43;102046.20;1665346;83;21710;-94
2022/04/27 05:06:29;;;;;;;10.32;8.33;;;;;;;6.41;73.39;102046.37;1649702;83;21121;-93
2022/04/27 05:08:56;;;;;;;10.50;8.78;;;;;;;6.57;73.33;102047.34;1676632;84;21337;-84
2022/04/27 05:11:26;;;;;;;10.93;9.73;;;;;;;6.70;73.29;102050.29;1643137;85;21803;-84
2022/04/27 05:13:52;;;;;;;11.22;9.25;;;;;;;6.83;73.27;102048.02;1658414;83;21118;-94
2022/04/27 05:16:19;;;;;;;9.80;8.70;;;;;;;6.90;72.91;102051.52;1671311;83;21302;-91
2022/04/27 05:18:46;;;;;;;12.88;10.15;;;;;;;6.99;72.88;102056.00;1661832;83;21133;-94
2022/04/27 05:21:23;;;;;;;11.20;9.33;;;;;;;7.15;72.96;102053.89;1729795;80;21088;-86
2022/04/27 05:23:54;;;;;;;11.48;8.70;;;;;;;7.26;72.76;102058.05;1724924;81;21799;-85
2022/04/27 05:26:22;;;;;;;12.07;8.95;;;;;;;7.41;72.67;102058.05;1625855;86;21569;-92
2022/04/27 05:31:54;;;;;;;10.90;8.75;;;;;;;7.63;72.23;102061.94;1661080;85;21261;-84
2022/04/27 05:34:24;;;;;;;12.10;9.75;;;;;;;7.66;72.13;102062.09;1662781;84;21182;-92
2022/04/27 05:36:51;;;;;;;10.43;9.18;;;;;;;7.78;72.12;102059.78;1638983;85;22049;-87
2022/04/27 05:39:22;;;;;;;12.15;9.13;;;;;;;7.85;71.88;102068.02;1631602;85;21146;-93
2022/04/27 05:41:55;;;;;;;12.78;9.18;;;;;;;7.83;71.56;102079.72;1661617;84;21177;-92
2022/04/27 05:44:23;;;;;;;13.62;9.38;;;;;;;7.83;71.68;102079.72;1665354;83;21103;-92
2022/04/27 05:46:51;;;;;;;12.33;9.50;;;;;;;7.84;71.61;102080.20;1665973;83;21077;-92
2022/04/27 05:49:18;;;;;;;13.93;9.13;;;;;;;7.80;71.49;102079.53;1686334;83;22506;-84
2022/04/27 05:51:46;;;;;;;12.95;9.58;;;;;;;7.84;71.65;102081.92;1663129;84;21147;-84
2022/04/27 05:54:16;;;;;;;13.65;10.78;;;;;;;7.84;71.57;102084.13;1683804;83;21088;-84
2022/04/27 05:56:47;;;;;;;14.75;10.30;;;;;;;7.92;71.73;102090.73;1617565;86;21259;-84
2022/04/27 05:59:13;;;;;;;12.23;10.08;;;;;;;8.01;71.70;102096.89;1651619;85;21117;-91
2022/04/27 06:01:40;;;;;;;11.65;8.48;;;;;;;8.14;71.78;102093.25;1646113;86;21803;-85
2022/04/27 06:04:07;;;;;;;12.25;9.10;;;;;;;8.26;71.50;102101.83;1622998;86;21099;-92
2022/04/27 06:06:34;;;;;;;14.18;10.18;;;;;;;8.28;71.23;102100.61;1664490;84;21126;-92
2022/04/27 06:09:00;;;;;;;13.78;10.45;;;;;;;8.25;71.17;102105.66;1641934;84;21092;-84
2022/04/27 06:11:27;;;;;;;15.72;9.70;;;;;;;8.36;71.38;102104.13;1670019;83;21093;-92
2022/04/27 06:13:54;;;;;;;14.35;10.00;;;;;;;8.47;71.16;102105.19;1656782;83;21286;-92
2022/04/27 06:16:23;;;;;;;15.90;10.32;;;;;;;8.50;71.09;102104.95;1692319;83;21167;-91
2022/04/27 06:18:50;;;;;;;18.17;9.33;;;;;;;8.63;71.09;102109.54;1655338;83;21126;-91
2022/04/27 06:21:17;;;;;;;11.25;7.83;;;;;;;8.78;71.00;102108.16;1649170;83;21174;-93
2022/04/27 06:23:47;;;;;;;10.88;8.65;;;;;;;8.89;70.78;102109.22;1684713;82;21200;-93
2022/04/27 06:26:14;;;;;;;10.60;8.58;;;;;;;9.01;70.75;102118.19;1664198;83;21832;-86
2022/04/27 06:28:42;;;;;;;13.53;10.05;;;;;;;9.19;70.64;102109.47;1706890;82;21084;-84
2022/04/27 06:31:09;;;;;;;11.93;9.43;;;;;;;9.33;70.29;102114.62;1717924;82;21089;-85
2022/04/27 06:33:38;;;;;;;13.15;8.40;;;;;;;9.49;70.32;102118.92;1703281;83;21683;-85
2022/04/27 06:36:05;;;;;;;12.03;7.75;;;;;;;9.60;69.79;102123.84;1695564;82;21082;-92
2022/04/27 06:38:32;;;;;;;8.58;6.72;;;;;;;9.57;69.63;102127.62;1709889;81;21777;-85
2022/04/27 06:40:58;;;;;;;10.13;7.37;;;;;;;9.60;69.57;102124.73;1691974;81;21271;-85
2022/04/27 06:43:26;;;;;;;7.83;6.37;;;;;;;9.61;69.29;102125.63;1728684;81;21227;-85
2022/04/27 06:45:57;;;;;;;8.63;6.05;;;;;;;9.63;69.27;102131.87;1631243;84;21619;-85
2022/04/27 06:48:24;;;;;;;8.75;6.97;;;;;;;9.59;69.03;102139.11;1663800;83;21170;-85
2022/04/27 06:50:55;;;;;;;10.00;7.55;;;;;;;9.57;69.10;102138.13;1673490;82;21052;-85
2022/04/27 06:53:21;;;;;;;10.48;6.78;;;;;;;9.61;68.97;102138.77;1698715;82;21232;-93
2022/04/27 06:55:50;;;;;;;9.00;7.10;;;;;;;9.71;68.99;102146.33;1673533;83;21075;-86
2022/04/27 06:58:17;;;;;;;9.28;7.33;;;;;;;9.86;68.88;102144.47;1684961;82;22071;-92
2022/04/27 07:00:52;;;;;;;12.37;8.03;;;;;;;10.07;68.71;102152.52;1662269;84;21056;-92
2022/04/27 07:03:19;;;;;;;11.05;6.95;;;;;;;10.22;68.34;102149.73;1688335;83;21840;-85
2022/04/27 07:05:46;;;;;;;9.53;6.55;;;;;;;10.27;67.79;102149.98;1708334;81;21096;-85
2022/04/27 07:08:13;;;;;;;10.85;7.03;;;;;;;10.35;67.78;102155.64;1697534;83;22050;-84
2022/04/27 07:10:49;;;;;;;8.13;5.97;;;;;;;10.51;67.64;102155.56;1673938;81;21295;-92
2022/04/27 07:13:16;;;;;;;8.60;6.55;;;;;;;10.69;67.29;102159.46;1725671;81;21170;-92
2022/04/27 07:15:46;;;;;;;9.53;6.75;;;;;;;10.81;66.83;102155.17;1656667;84;21820;-84
2022/04/27 07:18:14;;;;;;;8.35;5.83;;;;;;;10.90;66.60;102155.61;1714076;81;21550;-91
2022/04/27 07:20:42;;;;;;;11.33;6.65;;;;;;;11.06;66.61;102160.75;1728862;81;21023;-85
2022/04/27 07:23:09;;;;;;;8.05;6.08;;;;;;;11.15;66.19;102152.37;1717799;81;21057;-85
2022/04/27 07:25:36;;;;;;;7.28;6.10;;;;;;;11.25;66.06;102154.58;1720252;81;21099;-84
2022/04/27 07:28:03;;;;;;;7.70;6.55;;;;;;;11.38;65.81;102159.09;1709838;81;21783;-85
2022/04/27 07:30:37;;;;;;;8.18;6.00;;;;;;;11.47;65.36;102154.23;1728413;82;21051;-91
2022/04/27 07:33:05;;;;;;;9.50;6.70;;;;;;;11.53;65.25;102155.80;1708761;81;21136;-91
2022/04/27 07:35:32;;;;;;;6.95;6.00;;;;;;;11.60;65.13;102162.22;1730838;81;21182;-84
2022/04/27 07:37:59;;;;;;;7.58;6.03;;;;;;;11.83;65.35;102159.28;1745533;80;21748;-84
2022/04/27 07:40:26;;;;;;;7.80;5.67;;;;;;;12.30;65.29;102162.13;1701391;81;21812;-84
2022/04/27 07:43:00;;;;;;;10.28;6.03;;;;;;;12.56;64.65;102160.09;1690728;81;21072;-85
2022/04/27 07:45:22;;;;;;;11.05;6.15;;;;;;;12.49;63.86;102155.41;1694546;82;21061;-85
2022/04/27 07:47:49;;;;;;;8.40;5.70;;;;;;;12.37;63.48;102173.39;1701663;81;22437;-85
2022/04/27 07:50:16;;;;;;;10.15;5.80;;;;;;;12.01;62.82;102174.61;1719749;82;21138;-92
2022/04/27 07:52:43;;;;;;;7.12;5.60;;;;;;;11.77;63.01;102171.79;1709044;82;21782;-91
2022/04/27 07:55:10;;;;;;;6.87;5.50;;;;;;;11.72;63.38;102182.55;1689899;81;21079;-84
2022/04/27 07:57:39;;;;;;;9.78;5.33;;;;;;;11.61;63.12;102170.64;1743997;80;21110;-91
2022/04/27 08:00:11;;;;;;;4.70;3.52;;;;;;;11.48;63.53;102175.36;1740002;81;21126;-91
2022/04/27 08:02:43;;;;;;;5.60;3.80;;;;;;;11.50;63.68;102179.39;1724050;81;21123;-85
2022/04/27 08:05:10;;;;;;;8.05;3.90;;;;;;;11.38;63.53;102179.75;1739790;80;21971;-83
2022/04/27 08:07:42;;;;;;;7.00;3.60;;;;;;;11.37;63.66;102181.00;1701002;80;20980;-85
2022/04/27 08:10:14;;;;;;;4.97;3.17;;;;;;;11.47;63.70;102170.05;1759871;80;21121;-91
2022/04/27 08:12:43;;;;;;;5.50;3.52;;;;;;;11.54;63.45;102175.16;1759203;80;21361;-91
2022/04/27 08:15:09;;;;;;;5.67;3.17;;;;;;;11.52;63.40;102176.83;1739192;80;22115;-85
2022/04/27 08:17:58;;;;;;;5.55;3.27;;;;;;;11.52;63.54;102162.32;1726948;81;21802;-90
2022/04/27 08:23:13;;;;;;;7.47;2.67;;;;;;;11.87;62.90;102178.35;1727808;81;21069;-90
2022/04/27 08:25:40;;;;;;;4.78;3.33;;;;;;;11.98;63.02;102181.06;1696842;81;21106;-91
2022/04/27 08:28:07;;;;;;;6.12;3.10;;;;;;;12.17;62.57;102183.16;1726850;80;21073;-91
2022/04/27 08:30:39;;;;;;;5.25;3.65;;;;;;;12.10;62.10;102197.82;1744997;80;21871;-90
2022/04/27 08:33:06;;;;;;;4.17;3.00;;;;;;;11.98;61.70;102186.77;1738769;80;21042;-91
2022/04/27 08:35:40;;;;;;;5.72;2.95;;;;;;;11.95;61.77;102187.95;1728446;80;21080;-85
2022/04/27 08:38:04;;;;;;;5.65;3.75;;;;;;;11.96;61.52;102185.38;1731767;80;21434;-86
2022/04/27 08:40:36;;;;;;;4.03;3.08;;;;;;;11.96;61.25;102184.06;1731664;81;21149;-91
2022/04/27 08:43:04;;;;;;;6.22;3.22;;;;;;;12.18;61.62;102191.14;1668526;84;21142;-85
2022/04/27 08:45:32;;;;;;;7.50;3.37;;;;;;;12.51;61.20;102188.48;1724489;81;21100;-85
2022/04/27 08:48:00;;;;;;;5.83;3.17;;;;;;;12.67;60.88;102186.95;1750541;80;21095;-85
2022/04/27 08:50:28;;;;;;;6.83;3.30;;;;;;;12.92;60.38;102185.25;1755653;80;21570;-91
2022/04/27 08:52:55;;;;;;;9.70;2.90;;;;;;;12.96;59.90;102202.59;1755333;80;21078;-85
2022/04/27 08:55:22;;;;;;;5.20;2.55;;;;;;;12.77;59.23;102207.59;1752946;81;22303;-92
2022/04/27 08:57:49;;;;;;;4.20;2.17;;;;;;;12.48;59.14;102201.16;1749697;81;21063;-85
2022/04/27 09:00:18;;;;;;;4.08;2.33;;;;;;;12.04;58.53;102220.01;1760425;80;21042;-91
2022/04/27 09:02:45;;;;;;;3.72;2.10;;;;;;;11.63;58.74;102197.55;1766457;80;21145;-85
2022/04/27 09:05:19;;;;;;;6.75;4.20;;;;;;;11.33;59.25;102212.02;1745997;79;21050;-85
2022/04/27 09:07:52;;;;;;;3.65;2.60;;;;;;;11.16;59.73;102201.59;1717975;81;21774;-91
2022/04/27 09:10:24;;;;;;;3.02;2.00;;;;;;;11.24;60.18;102205.90;1744582;81;21085;-85
2022/04/27 09:12:55;;;;;;;3.50;1.90;;;;;;;11.32;59.94;102204.92;1746547;80;21573;-85
2022/04/27 09:15:26;;;;;;;2.77;1.70;;;;;;;11.27;59.64;102206.05;1725163;80;21074;-85
2022/04/27 09:20:47;;;;;;;2.77;1.85;;;;;;;11.32;59.41;102211.12;1747703;80;22577;-84
2022/04/27 09:23:28;;;;;;;3.60;1.70;;;;;;;11.24;59.04;102201.95;1735098;80;21043;-85
2022/04/27 09:26:00;;;;;;;2.92;1.87;;;;;;;11.18;59.19;102214.85;1746307;80;21066;-92
2022/04/27 09:28:32;;;;;;;4.83;2.00;;;;;;;11.15;59.04;102210.75;1743977;80;22916;-85
2022/04/27 09:30:59;;;;;;;4.20;1.85;;;;;;;11.08;58.86;102213.53;1758847;80;21073;-84
2022/04/27 09:33:32;;;;;;;4.28;1.80;;;;;;;11.00;58.58;102226.35;1744157;80;21768;-85
2022/04/27 09:35:59;;;;;;;4.42;2.17;;;;;;;10.99;58.58;102231.55;1729235;81;21039;-91
2022/04/27 09:38:26;;;;;;;8.20;1.95;;;;;;;11.00;58.69;102231.62;1766851;80;21102;-90
2022/04/27 09:40:59;;;;;;;4.97;1.62;;;;;;;11.09;58.74;102223.22;1743488;80;21073;-90
2022/04/27 09:43:46;;;;;;;3.55;1.70;;;;;;;11.13;58.10;102222.56;1747566;81;21077;-84
2022/04/27 09:46:28;;;;;;;3.90;1.85;;;;;;;11.09;58.03;102235.08;1752467;80;21940;-84
2022/04/27 09:49:08;;;;;;;2.37;1.50;;;;;;;11.04;57.70;102233.56;1740578;81;21693;-92
2022/04/27 09:51:35;;;;;;;4.22;1.40;;;;;;;11.03;57.38;102237.02;1739482;80;21069;-86
2022/04/27 09:54:03;;;;;;;4.25;1.85;;;;;;;11.08;57.55;102238.14;1751060;80;21248;-85
2022/04/27 09:56:39;;;;;;;4.50;1.80;;;;;;;11.13;56.77;102239.69;1756417;80;21114;-92
2022/04/27 09:59:11;;;;;;;4.10;1.60;;;;;;;11.09;57.09;102237.33;1748265;81;21779;-85
2022/04/27 10:01:38;;;;;;;5.10;1.70;;;;;;;11.12;56.95;102237.88;1756280;80;21054;-85
2022/04/27 10:04:05;;;;;;;2.12;1.45;;;;;;;11.07;56.38;102238.99;1748683;80;21107;-85
2022/04/27 10:06:33;;;;;;;3.98;1.57;;;;;;;10.98;56.23;102243.83;1734620;81;21176;-91
2022/04/27 10:09:00;;;;;;;3.77;1.52;;;;;;;10.95;56.25;102248.05;1736578;81;21127;-85
2022/04/27 10:11:29;;;;;;;3.98;1.27;;;;;;;10.88;55.69;102249.47;1731553;81;21994;-83
2022/04/27 10:13:56;;;;;;;3.40;1.50;;;;;;;10.75;55.31;102268.16;1744995;81;21050;-84
2022/04/27 10:16:24;;;;;;;2.67;1.40;;;;;;;10.56;54.76;102259.34;1749719;80;21071;-90
2022/04/27 10:18:54;;;;;;;3.85;1.87;;;;;;;10.53;54.99;102267.11;1754641;80;21310;-90
2022/04/27 10:21:57;;;;;;;3.35;1.30;;;;;;;10.50;54.81;102259.05;1746305;81;21070;-90
2022/04/27 10:24:49;;;;;;;3.08;1.25;;;;;;;10.50;54.81;102265.64;1756552;80;21958;-84
2022/04/27 10:27:40;;;;;;;3.52;1.70;;;;;;;10.38;54.42;102261.98;1754762;80;21156;-91
2022/04/27 10:30:10;;;;;;;2.08;1.30;;;;;;;10.25;54.36;102275.33;1756450;80;21599;-91
2022/04/27 10:32:48;;;;;;;3.50;1.30;;;;;;;10.25;54.14;102267.01;1755504;81;20943;-91
2022/04/27 10:35:19;;;;;;;4.17;1.47;;;;;;;10.28;53.90;102275.46;1735496;80;21130;-85
2022/04/27 10:37:59;;;;;;;1.95;1.30;;;;;;;10.31;54.17;102271.30;1759060;80;21773;-84
2022/04/27 10:40:37;;;;;;;2.10;1.37;;;;;;;10.33;54.02;102270.06;1749378;80;21115;-84
2022/04/27 10:43:15;;;;;;;5.80;1.70;;;;;;;10.29;53.80;102266.33;1745913;80;21118;-90
2022/04/27 10:45:48;;;;;;;3.52;1.60;;;;;;;10.40;53.73;102270.86;1750877;81;21066;-91
2022/04/27 10:48:23;;;;;;;3.92;1.85;;;;;;;10.36;53.18;102265.34;1728944;81;21128;-91
2022/04/27 10:51:03;;;;;;;12.25;1.95;;;;;;;10.31;53.08;102276.98;1744234;80;21806;-84
2022/04/27 10:53:41;;;;;;;2.65;1.32;;;;;;;10.30;53.15;102282.66;1746357;80;21129;-84
2022/04/27 10:56:26;;;;;;;3.80;1.60;;;;;;;10.31;52.73;102274.34;1749241;80;21098;-92
2022/04/27 10:58:54;;;;;;;4.72;1.32;;;;;;;10.28;52.68;102269.77;1750285;80;21062;-92
2022/04/27 11:01:27;;;;;;;3.60;1.35;;;;;;;10.24;52.48;102277.03;1726234;80;20975;-91
2022/04/27 11:04:01;;;;;;;5.03;2.02;;;;;;;10.32;52.43;102277.45;1751649;80;22677;-84
2022/04/27 11:06:27;;;;;;;4.00;1.75;;;;;;;10.40;52.13;102271.25;1750947;80;21184;-93
2022/04/27 11:09:16;;;;;;;5.25;1.40;;;;;;;10.53;51.97;102263.55;1752386;80;20876;-89
2022/04/27 11:11:55;;;;;;;3.12;1.50;;;;;;;10.60;51.44;102282.36;1750185;80;21089;-90
2022/04/27 11:14:27;;;;;;;3.00;1.75;;;;;;;10.58;51.32;102272.17;1754825;80;21058;-84
2022/04/27 11:16:54;;;;;;;2.05;1.40;;;;;;;10.68;51.49;102274.87;1748102;81;21833;-91
2022/04/27 11:19:38;;;;;;;2.70;1.50;;;;;;;10.73;51.29;102273.34;1714361;80;22218;-91
2022/04/27 11:22:14;;;;;;;1.75;1.40;;;;;;;10.85;51.06;102269.10;1716586;81;21098;-84
2022/04/27 11:24:45;;;;;;;2.30;1.12;;;;;;;10.96;50.91;102268.27;1754493;80;21061;-85
2022/04/27 11:27:13;;;;;;;2.95;1.35;;;;;;;11.00;50.81;102264.56;1698496;83;21111;-83
2022/04/27 11:29:40;;;;;;;2.05;1.32;;;;;;;11.10;50.90;102255.34;1715704;82;21875;-86
2022/04/27 11:32:08;;;;;;;2.22;1.35;;;;;;;11.26;50.83;102256.56;1732227;80;21082;-84
2022/04/27 11:34:35;;;;;;;3.55;1.32;;;;;;;11.26;50.38;102255.63;1723871;81;21036;-89
2022/04/27 11:37:19;;;;;;;1.52;0.95;;;;;;;11.17;50.41;102256.55;1748120;80;21210;-92
2022/04/27 11:39:46;;;;;;;3.45;1.40;;;;;;;11.15;50.21;102259.50;1716726;81;21005;-90
2022/04/27 11:42:16;;;;;;;1.98;1.02;;;;;;;11.02;50.02;102251.03;1748377;80;22706;-91
2022/04/27 11:44:53;;;;;;;2.80;1.30;;;;;;;11.02;50.04;102253.67;1718402;80;21122;-92
2022/04/27 11:47:29;;;;;;;7.17;1.72;;;;;;;10.92;49.95;102227.70;1755894;81;21580;-92
2022/04/27 11:50:00;;;;;;;6.95;4.58;;;;;;;11.12;49.84;102249.73;1720930;80;21036;-92
2022/04/27 11:52:27;;;;;;;2.72;1.45;;;;;;;11.25;49.72;102262.64;1707962;83;21145;-92